sensor_id;sensor_type;location;lat;lon;timestamp;pressure;altitude;pressure_sealevel;temperature;humidity
20612;BME280;10465;42.686;23.364;2023-03-13T00:00:20;95203.94;;;5.68;45.21
20612;BME280;10465;42.686;23.364;2023-03-13T00:02:46;95149.09;;;5.31;44.90
20612;BME280;10465;42.686;23.364;2023-03-13T00:05:12;95220.72;;;5.77;45.15
20612;BME280;10465;42.686;23.364;2023-03-13T00:07:38;95217.81;;;5.79;44.45
20612;BME280;10465;42.686;23.364;2023-03-13T00:10:04;95228.31;;;5.79;45.01
20612;BME280;10465;42.686;23.364;2023-03-13T00:12:30;95208.09;;;5.74;44.61
20612;BME280;10465;42.686;23.364;2023-03-13T00:14:56;95162.72;;;5.33;44.67
20612;BME280;10465;42.686;23.364;2023-03-13T00:17:21;95219.94;;;5.72;44.98
20612;BME280;10465;42.686;23.364;2023-03-13T00:19:47;95231.75;;;5.74;45.11
20612;BME280;10465;42.686;23.364;2023-03-13T00:22:12;95219.94;;;5.66;45.19
20612;BME280;10465;42.686;23.364;2023-03-13T00:24:38;95224.16;;;5.73;45.29
20612;BME280;10465;42.686;23.364;2023-03-13T00:27:03;95240.69;;;5.73;45.08
20612;BME280;10465;42.686;23.364;2023-03-13T00:29:31;95247.25;;;5.70;45.31
20612;BME280;10465;42.686;23.364;2023-03-13T00:31:57;95234.91;;;5.61;45.04
20612;BME280;10465;42.686;23.364;2023-03-13T00:34:22;95241.47;;;5.58;45.36
20612;BME280;10465;42.686;23.364;2023-03-13T00:36:50;95234.41;;;5.49;45.36
20612;BME280;10465;42.686;23.364;2023-03-13T00:39:16;95203.97;;;5.27;45.70
20612;BME280;10465;42.686;23.364;2023-03-13T00:41:41;95216.81;;;5.34;45.71
20612;BME280;10465;42.686;23.364;2023-03-13T00:44:08;95227.56;;;5.37;45.67
20612;BME280;10465;42.686;23.364;2023-03-13T00:46:34;95242.56;;;5.47;45.89
20612;BME280;10465;42.686;23.364;2023-03-13T00:48:59;95241.50;;;5.43;45.58
20612;BME280;10465;42.686;23.364;2023-03-13T00:51:25;95235.72;;;5.36;46.31
20612;BME280;10465;42.686;23.364;2023-03-13T00:53:51;95242.53;;;5.37;45.97
20612;BME280;10465;42.686;23.364;2023-03-13T00:56:18;95239.91;;;5.32;46.47
20612;BME280;10465;42.686;23.364;2023-03-13T00:58:45;95236.50;;;5.31;46.58
20612;BME280;10465;42.686;23.364;2023-03-13T01:01:18;95232.03;;;5.27;45.95
20612;BME280;10465;42.686;23.364;2023-03-13T01:03:46;95239.63;;;5.18;47.02
20612;BME280;10465;42.686;23.364;2023-03-13T01:06:15;95244.63;;;5.25;47.07
20612;BME280;10465;42.686;23.364;2023-03-13T01:08:40;95241.22;;;5.29;46.47
20612;BME280;10465;42.686;23.364;2023-03-13T01:11:08;95239.38;;;5.25;46.48
20612;BME280;10465;42.686;23.364;2023-03-13T01:13:34;95220.19;;;5.14;46.53
20612;BME280;10465;42.686;23.364;2023-03-13T01:16:26;95239.66;;;5.23;46.93
20612;BME280;10465;42.686;23.364;2023-03-13T01:18:55;95226.00;;;5.11;47.21
20612;BME280;10465;42.686;23.364;2023-03-13T01:21:22;95243.06;;;5.24;47.14
20612;BME280;10465;42.686;23.364;2023-03-13T01:23:48;95209.97;;;5.12;46.89
20612;BME280;10465;42.686;23.364;2023-03-13T01:26:15;95232.84;;;5.27;47.41
20612;BME280;10465;42.686;23.364;2023-03-13T01:28:40;95235.44;;;5.22;47.18
20612;BME280;10465;42.686;23.364;2023-03-13T01:31:20;95243.31;;;5.22;47.00
20612;BME280;10465;42.686;23.364;2023-03-13T01:33:48;95240.16;;;5.20;46.99
20612;BME280;10465;42.686;23.364;2023-03-13T01:36:14;95248.81;;;5.15;46.83
20612;BME280;10465;42.686;23.364;2023-03-13T01:38:40;95254.59;;;5.17;46.26
20612;BME280;10465;42.686;23.364;2023-03-13T01:41:07;95231.22;;;4.95;46.97
20612;BME280;10465;42.686;23.364;2023-03-13T01:43:35;95249.63;;;5.11;46.74
20612;BME280;10465;42.686;23.364;2023-03-13T01:52:14;95260.84;;;4.91;47.46
20612;BME280;10465;42.686;23.364;2023-03-13T01:54:43;95258.22;;;4.96;47.28
20612;BME280;10465;42.686;23.364;2023-03-13T01:57:16;95259.00;;;4.86;47.80
20612;BME280;10465;42.686;23.364;2023-03-13T02:00:01;95227.66;;;4.49;49.52
20612;BME280;10465;42.686;23.364;2023-03-13T02:02:29;95256.00;;;4.47;50.52
20612;BME280;10465;42.686;23.364;2023-03-13T02:04:59;95191.19;;;3.80;51.35
20612;BME280;10465;42.686;23.364;2023-03-13T02:07:30;95259.09;;;3.91;52.74
20612;BME280;10465;42.686;23.364;2023-03-13T02:09:59;95233.88;;;3.75;53.09
20612;BME280;10465;42.686;23.364;2023-03-13T02:12:30;95232.16;;;3.54;53.84
20612;BME280;10465;42.686;23.364;2023-03-13T02:14:57;95252.81;;;3.50;54.36
20612;BME280;10465;42.686;23.364;2023-03-13T02:17:24;95265.72;;;3.62;54.74
20612;BME280;10465;42.686;23.364;2023-03-13T02:19:51;95261.00;;;3.64;54.75
20612;BME280;10465;42.686;23.364;2023-03-13T02:22:44;95271.34;;;3.81;54.84
20612;BME280;10465;42.686;23.364;2023-03-13T02:28:02;95278.41;;;3.80;55.16
20612;BME280;10465;42.686;23.364;2023-03-13T02:30:30;95277.31;;;3.76;55.85
20612;BME280;10465;42.686;23.364;2023-03-13T02:32:56;95286.81;;;3.82;55.15
20612;BME280;10465;42.686;23.364;2023-03-13T02:35:22;95291.50;;;3.80;55.50
20612;BME280;10465;42.686;23.364;2023-03-13T02:37:54;95263.88;;;3.62;56.34
20612;BME280;10465;42.686;23.364;2023-03-13T02:40:24;95301.13;;;3.69;56.74
20612;BME280;10465;42.686;23.364;2023-03-13T02:42:51;95302.38;;;3.62;57.46
20612;BME280;10465;42.686;23.364;2023-03-13T02:45:19;95314.75;;;3.71;57.54
20612;BME280;10465;42.686;23.364;2023-03-13T02:47:44;95320.75;;;3.72;58.01
20612;BME280;10465;42.686;23.364;2023-03-13T02:50:11;95333.06;;;3.71;58.44
20612;BME280;10465;42.686;23.364;2023-03-13T02:52:44;95317.97;;;3.52;57.89
20612;BME280;10465;42.686;23.364;2023-03-13T02:55:17;95331.13;;;3.57;57.85
20612;BME280;10465;42.686;23.364;2023-03-13T02:57:46;95326.16;;;3.60;58.29
20612;BME280;10465;42.686;23.364;2023-03-13T03:00:12;95329.53;;;3.56;57.71
20612;BME280;10465;42.686;23.364;2023-03-13T03:02:41;95308.03;;;3.49;57.11
20612;BME280;10465;42.686;23.364;2023-03-13T03:05:07;95300.72;;;3.23;57.44
20612;BME280;10465;42.686;23.364;2023-03-13T03:07:32;95311.84;;;3.09;58.81
20612;BME280;10465;42.686;23.364;2023-03-13T03:09:58;95330.25;;;3.19;58.33
20612;BME280;10465;42.686;23.364;2023-03-13T03:12:23;95248.25;;;2.81;57.57
20612;BME280;10465;42.686;23.364;2023-03-13T03:14:48;95327.00;;;3.34;57.90
20612;BME280;10465;42.686;23.364;2023-03-13T03:17:14;95329.91;;;3.37;57.32
20612;BME280;10465;42.686;23.364;2023-03-13T03:19:39;95334.28;;;3.32;57.60
20612;BME280;10465;42.686;23.364;2023-03-13T03:22:05;95345.94;;;3.46;57.22
20612;BME280;10465;42.686;23.364;2023-03-13T03:24:30;95349.00;;;3.38;58.31
20612;BME280;10465;42.686;23.364;2023-03-13T03:26:56;95361.59;;;3.41;58.54
20612;BME280;10465;42.686;23.364;2023-03-13T03:29:21;95372.38;;;3.44;58.74
20612;BME280;10465;42.686;23.364;2023-03-13T03:31:47;95357.34;;;3.35;58.65
20612;BME280;10465;42.686;23.364;2023-03-13T03:34:12;95355.97;;;3.27;58.45
20612;BME280;10465;42.686;23.364;2023-03-13T03:36:37;95326.66;;;3.03;58.37
20612;BME280;10465;42.686;23.364;2023-03-13T03:39:03;95367.06;;;3.12;58.46
20612;BME280;10465;42.686;23.364;2023-03-13T03:41:29;95371.25;;;3.13;58.19
20612;BME280;10465;42.686;23.364;2023-03-13T03:43:55;95343.97;;;2.82;58.36
20612;BME280;10465;42.686;23.364;2023-03-13T03:46:20;95316.94;;;2.71;58.15
20612;BME280;10465;42.686;23.364;2023-03-13T03:48:46;95393.22;;;3.12;57.78
20612;BME280;10465;42.686;23.364;2023-03-13T03:51:12;95400.34;;;3.17;58.42
20612;BME280;10465;42.686;23.364;2023-03-13T03:53:37;95372.97;;;3.03;59.09
20612;BME280;10465;42.686;23.364;2023-03-13T03:56:03;95397.66;;;3.12;58.53
20612;BME280;10465;42.686;23.364;2023-03-13T03:58:29;95395.41;;;2.98;59.00
20612;BME280;10465;42.686;23.364;2023-03-13T04:00:58;95388.41;;;2.82;59.52
20612;BME280;10465;42.686;23.364;2023-03-13T04:03:24;95404.13;;;3.04;58.94
20612;BME280;10465;42.686;23.364;2023-03-13T04:05:49;95370.66;;;2.84;58.84
20612;BME280;10465;42.686;23.364;2023-03-13T04:08:15;95406.44;;;3.01;59.05
20612;BME280;10465;42.686;23.364;2023-03-13T04:10:40;95408.38;;;2.88;59.34
20612;BME280;10465;42.686;23.364;2023-03-13T04:13:06;95414.56;;;2.82;59.30
20612;BME280;10465;42.686;23.364;2023-03-13T04:15:32;95425.22;;;2.76;60.09
20612;BME280;10465;42.686;23.364;2023-03-13T04:17:58;95420.94;;;2.69;60.42
20612;BME280;10465;42.686;23.364;2023-03-13T04:20:23;95423.44;;;2.81;59.93
20612;BME280;10465;42.686;23.364;2023-03-13T04:22:49;95420.78;;;2.76;59.90
20612;BME280;10465;42.686;23.364;2023-03-13T04:25:14;95436.56;;;2.86;59.43
20612;BME280;10465;42.686;23.364;2023-03-13T04:27:40;95429.78;;;2.85;59.62
20612;BME280;10465;42.686;23.364;2023-03-13T04:30:06;95433.78;;;2.93;59.48
20612;BME280;10465;42.686;23.364;2023-03-13T04:32:31;95437.88;;;2.84;59.40
20612;BME280;10465;42.686;23.364;2023-03-13T04:34:57;95446.97;;;3.03;59.34
20612;BME280;10465;42.686;23.364;2023-03-13T04:37:23;95448.38;;;3.11;59.26
20612;BME280;10465;42.686;23.364;2023-03-13T04:39:48;95454.91;;;3.08;59.91
20612;BME280;10465;42.686;23.364;2023-03-13T04:42:13;95462.94;;;3.23;58.93
20612;BME280;10465;42.686;23.364;2023-03-13T04:44:39;95453.50;;;3.22;58.78
20612;BME280;10465;42.686;23.364;2023-03-13T04:47:04;95452.72;;;3.22;58.58
20612;BME280;10465;42.686;23.364;2023-03-13T04:49:30;95418.63;;;2.95;58.26
20612;BME280;10465;42.686;23.364;2023-03-13T04:51:55;95470.91;;;3.34;57.85
20612;BME280;10465;42.686;23.364;2023-03-13T04:54:21;95468.25;;;3.29;57.94
20612;BME280;10465;42.686;23.364;2023-03-13T04:56:47;95474.88;;;3.36;57.94
20612;BME280;10465;42.686;23.364;2023-03-13T04:59:13;95472.31;;;3.19;58.36
20612;BME280;10465;42.686;23.364;2023-03-13T05:01:39;95424.53;;;2.63;59.73
20612;BME280;10465;42.686;23.364;2023-03-13T05:04:05;95468.09;;;2.96;58.90
20612;BME280;10465;42.686;23.364;2023-03-13T05:06:31;95472.81;;;3.16;58.56
20612;BME280;10465;42.686;23.364;2023-03-13T05:08:56;95489.03;;;3.18;58.52
20612;BME280;10465;42.686;23.364;2023-03-13T05:11:22;95478.16;;;3.05;58.93
20612;BME280;10465;42.686;23.364;2023-03-13T05:13:47;95478.56;;;3.18;58.82
20612;BME280;10465;42.686;23.364;2023-03-13T05:16:13;95469.19;;;3.01;58.68
20612;BME280;10465;42.686;23.364;2023-03-13T05:18:38;95467.31;;;2.96;59.24
20612;BME280;10465;42.686;23.364;2023-03-13T05:21:04;95503.41;;;3.38;58.80
20612;BME280;10465;42.686;23.364;2023-03-13T05:23:29;95480.03;;;3.31;58.73
20612;BME280;10465;42.686;23.364;2023-03-13T05:25:55;95493.00;;;3.43;58.68
20612;BME280;10465;42.686;23.364;2023-03-13T05:28:20;95507.63;;;3.61;58.58
20612;BME280;10465;42.686;23.364;2023-03-13T05:30:46;95476.16;;;3.34;57.59
20612;BME280;10465;42.686;23.364;2023-03-13T05:33:11;95507.31;;;3.57;57.41
20612;BME280;10465;42.686;23.364;2023-03-13T05:35:37;95497.03;;;3.51;57.19
20612;BME280;10465;42.686;23.364;2023-03-13T05:38:03;95501.66;;;3.65;57.70
20612;BME280;10465;42.686;23.364;2023-03-13T05:40:28;95516.13;;;3.73;57.90
20612;BME280;10465;42.686;23.364;2023-03-13T05:42:53;95502.97;;;3.68;58.47
20612;BME280;10465;42.686;23.364;2023-03-13T05:45:19;95490.31;;;3.60;57.83
20612;BME280;10465;42.686;23.364;2023-03-13T05:47:44;95510.16;;;3.78;56.83
20612;BME280;10465;42.686;23.364;2023-03-13T05:50:10;95493.78;;;3.65;56.46
20612;BME280;10465;42.686;23.364;2023-03-13T05:52:36;95497.19;;;3.66;56.20
20612;BME280;10465;42.686;23.364;2023-03-13T05:55:01;95527.50;;;3.84;55.55
20612;BME280;10465;42.686;23.364;2023-03-13T05:57:26;95518.31;;;3.81;55.99
20612;BME280;10465;42.686;23.364;2023-03-13T05:59:53;95528.84;;;3.86;55.21
20612;BME280;10465;42.686;23.364;2023-03-13T06:02:19;95528.28;;;3.84;56.19
20612;BME280;10465;42.686;23.364;2023-03-13T06:04:45;95527.34;;;3.95;56.56
20612;BME280;10465;42.686;23.364;2023-03-13T06:07:11;95519.97;;;3.92;55.26
20612;BME280;10465;42.686;23.364;2023-03-13T06:09:36;95536.13;;;4.06;55.11
20612;BME280;10465;42.686;23.364;2023-03-13T06:12:02;95489.94;;;3.73;54.81
20612;BME280;10465;42.686;23.364;2023-03-13T06:14:27;95539.97;;;3.99;55.08
20612;BME280;10465;42.686;23.364;2023-03-13T06:16:54;95528.22;;;4.01;55.57
20612;BME280;10465;42.686;23.364;2023-03-13T06:19:20;95537.28;;;4.20;55.40
20612;BME280;10465;42.686;23.364;2023-03-13T06:21:47;95533.09;;;4.19;55.15
20612;BME280;10465;42.686;23.364;2023-03-13T06:24:12;95533.69;;;4.27;55.30
20612;BME280;10465;42.686;23.364;2023-03-13T06:26:38;95528.75;;;4.30;54.71
20612;BME280;10465;42.686;23.364;2023-03-13T06:29:03;95526.34;;;4.29;54.66
20612;BME280;10465;42.686;23.364;2023-03-13T06:31:28;95538.03;;;4.43;53.56
20612;BME280;10465;42.686;23.364;2023-03-13T06:33:54;95539.44;;;4.56;54.64
20612;BME280;10465;42.686;23.364;2023-03-13T06:36:21;95503.22;;;4.53;54.25
20612;BME280;10465;42.686;23.364;2023-03-13T06:38:47;95505.09;;;4.57;54.31
20612;BME280;10465;42.686;23.364;2023-03-13T06:41:12;95511.53;;;4.77;54.17
20612;BME280;10465;42.686;23.364;2023-03-13T06:43:38;95507.75;;;4.94;53.25
20612;BME280;10465;42.686;23.364;2023-03-13T06:46:05;95516.25;;;5.17;52.51
20612;BME280;10465;42.686;23.364;2023-03-13T06:48:31;95503.69;;;5.24;52.24
20612;BME280;10465;42.686;23.364;2023-03-13T06:50:57;95510.06;;;5.38;51.68
20612;BME280;10465;42.686;23.364;2023-03-13T06:53:23;95525.13;;;5.58;50.71
20612;BME280;10465;42.686;23.364;2023-03-13T06:55:48;95501.97;;;5.45;51.27
20612;BME280;10465;42.686;23.364;2023-03-13T06:58:15;95531.22;;;5.74;50.75
20612;BME280;10465;42.686;23.364;2023-03-13T07:00:40;95521.53;;;5.80;51.67
20612;BME280;10465;42.686;23.364;2023-03-13T07:03:08;95490.75;;;5.75;51.39
20612;BME280;10465;42.686;23.364;2023-03-13T07:05:36;95506.84;;;5.84;51.77
20612;BME280;10465;42.686;23.364;2023-03-13T07:08:02;95518.38;;;5.83;51.28
20612;BME280;10465;42.686;23.364;2023-03-13T07:10:29;95516.50;;;5.73;51.88
20612;BME280;10465;42.686;23.364;2023-03-13T07:12:55;95518.44;;;5.98;51.33
20612;BME280;10465;42.686;23.364;2023-03-13T07:15:21;95497.38;;;5.88;51.03
20612;BME280;10465;42.686;23.364;2023-03-13T07:17:46;95529.50;;;6.10;50.04
20612;BME280;10465;42.686;23.364;2023-03-13T07:20:12;95517.19;;;6.31;50.41
20612;BME280;10465;42.686;23.364;2023-03-13T07:22:37;95521.94;;;6.50;49.39
20612;BME280;10465;42.686;23.364;2023-03-13T07:25:04;95520.63;;;6.47;48.47
20612;BME280;10465;42.686;23.364;2023-03-13T07:27:30;95520.34;;;6.43;48.16
20612;BME280;10465;42.686;23.364;2023-03-13T07:29:55;95507.47;;;6.47;48.76
20612;BME280;10465;42.686;23.364;2023-03-13T07:32:21;95516.94;;;6.58;48.08
20612;BME280;10465;42.686;23.364;2023-03-13T07:34:46;95499.84;;;6.51;47.90
20612;BME280;10465;42.686;23.364;2023-03-13T07:37:12;95518.53;;;6.75;48.19
20612;BME280;10465;42.686;23.364;2023-03-13T07:39:38;95491.94;;;6.71;48.27
20612;BME280;10465;42.686;23.364;2023-03-13T07:42:04;95505.88;;;6.87;47.48
20612;BME280;10465;42.686;23.364;2023-03-13T07:44:29;95524.56;;;7.06;46.47
20612;BME280;10465;42.686;23.364;2023-03-13T07:46:58;95517.94;;;7.08;47.20
20612;BME280;10465;42.686;23.364;2023-03-13T07:49:24;95488.78;;;6.94;47.72
20612;BME280;10465;42.686;23.364;2023-03-13T07:51:49;95513.97;;;7.26;46.65
20612;BME280;10465;42.686;23.364;2023-03-13T07:54:15;95536.34;;;7.29;45.31
20612;BME280;10465;42.686;23.364;2023-03-13T07:56:40;95508.41;;;7.33;45.68
20612;BME280;10465;42.686;23.364;2023-03-13T07:59:06;95513.06;;;7.61;46.08
20612;BME280;10465;42.686;23.364;2023-03-13T08:01:31;95506.13;;;7.86;45.67
20612;BME280;10465;42.686;23.364;2023-03-13T08:03:57;95491.31;;;7.95;44.74
20612;BME280;10465;42.686;23.364;2023-03-13T08:06:26;95485.22;;;8.00;44.38
20612;BME280;10465;42.686;23.364;2023-03-13T08:08:56;95488.31;;;8.12;44.17
20612;BME280;10465;42.686;23.364;2023-03-13T08:11:23;95490.31;;;8.25;44.19
20612;BME280;10465;42.686;23.364;2023-03-13T08:13:50;95479.88;;;8.10;43.76
20612;BME280;10465;42.686;23.364;2023-03-13T08:16:18;95502.44;;;8.31;43.42
20612;BME280;10465;42.686;23.364;2023-03-13T08:18:46;95493.09;;;8.49;43.42
20612;BME280;10465;42.686;23.364;2023-03-13T08:21:14;95494.59;;;8.60;42.74
20612;BME280;10465;42.686;23.364;2023-03-13T08:23:41;95494.97;;;8.78;42.31
20612;BME280;10465;42.686;23.364;2023-03-13T08:26:10;95501.41;;;8.96;42.63
20612;BME280;10465;42.686;23.364;2023-03-13T08:28:36;95498.00;;;9.19;41.36
20612;BME280;10465;42.686;23.364;2023-03-13T08:33:36;95471.97;;;9.31;41.03
20612;BME280;10465;42.686;23.364;2023-03-13T08:36:31;95507.78;;;9.66;40.73
20612;BME280;10465;42.686;23.364;2023-03-13T08:38:59;95505.19;;;9.85;39.97
20612;BME280;10465;42.686;23.364;2023-03-13T08:41:26;95501.75;;;9.85;39.56
20612;BME280;10465;42.686;23.364;2023-03-13T08:43:56;95498.81;;;9.86;40.13
20612;BME280;10465;42.686;23.364;2023-03-13T08:46:22;95501.75;;;10.04;39.08
20612;BME280;10465;42.686;23.364;2023-03-13T08:48:53;95510.47;;;10.04;38.33
20612;BME280;10465;42.686;23.364;2023-03-13T08:51:20;95498.00;;;10.10;37.68
20612;BME280;10465;42.686;23.364;2023-03-13T08:53:46;95485.19;;;10.17;37.81
20612;BME280;10465;42.686;23.364;2023-03-13T08:56:15;95495.41;;;10.61;37.73
20612;BME280;10465;42.686;23.364;2023-03-13T08:58:41;95494.09;;;10.78;37.32
20612;BME280;10465;42.686;23.364;2023-03-13T09:01:14;95486.59;;;10.99;36.93
20612;BME280;10465;42.686;23.364;2023-03-13T09:03:40;95490.75;;;11.19;36.72
20612;BME280;10465;42.686;23.364;2023-03-13T09:06:07;95485.53;;;11.27;36.38
20612;BME280;10465;42.686;23.364;2023-03-13T09:08:33;95480.53;;;11.53;35.23
20612;BME280;10465;42.686;23.364;2023-03-13T09:11:00;95491.31;;;11.71;34.29
20612;BME280;10465;42.686;23.364;2023-03-13T09:13:27;95486.72;;;11.76;35.30
20612;BME280;10465;42.686;23.364;2023-03-13T09:18:20;95481.78;;;11.97;34.69
20612;BME280;10465;42.686;23.364;2023-03-13T09:20:45;95482.81;;;11.87;34.79
20612;BME280;10465;42.686;23.364;2023-03-13T09:23:10;95480.63;;;11.76;35.32
20612;BME280;10465;42.686;23.364;2023-03-13T09:25:37;95457.72;;;11.80;34.53
20612;BME280;10465;42.686;23.364;2023-03-13T09:28:02;95474.94;;;12.19;34.82
20612;BME280;10465;42.686;23.364;2023-03-13T09:30:28;95460.34;;;12.07;34.13
20612;BME280;10465;42.686;23.364;2023-03-13T09:32:53;95487.25;;;12.15;34.37
20612;BME280;10465;42.686;23.364;2023-03-13T09:35:19;95486.00;;;12.34;33.43
20612;BME280;10465;42.686;23.364;2023-03-13T09:37:44;95489.78;;;12.56;33.51
20612;BME280;10465;42.686;23.364;2023-03-13T09:40:14;95473.22;;;12.59;34.00
20612;BME280;10465;42.686;23.364;2023-03-13T09:42:52;95483.75;;;12.64;33.51
20612;BME280;10465;42.686;23.364;2023-03-13T09:45:32;95482.06;;;12.68;33.14
20612;BME280;10465;42.686;23.364;2023-03-13T09:48:21;95464.19;;;12.60;33.22
20612;BME280;10465;42.686;23.364;2023-03-13T09:51:14;95474.19;;;12.85;32.67
20612;BME280;10465;42.686;23.364;2023-03-13T09:53:48;95480.88;;;13.05;33.08
20612;BME280;10465;42.686;23.364;2023-03-13T09:56:19;95443.28;;;12.90;32.90
20612;BME280;10465;42.686;23.364;2023-03-13T09:58:52;95474.47;;;13.06;32.48
20612;BME280;10465;42.686;23.364;2023-03-13T10:01:23;95441.44;;;12.99;32.28
20612;BME280;10465;42.686;23.364;2023-03-13T10:06:22;95470.00;;;13.55;31.71
20612;BME280;10465;42.686;23.364;2023-03-13T10:08:49;95455.50;;;13.79;31.27
20612;BME280;10465;42.686;23.364;2023-03-13T10:11:27;95440.16;;;13.93;30.78
20612;BME280;10465;42.686;23.364;2023-03-13T10:14:01;95458.84;;;14.19;30.36
20612;BME280;10465;42.686;23.364;2023-03-13T10:16:35;95455.53;;;14.14;30.20
20612;BME280;10465;42.686;23.364;2023-03-13T10:19:17;95425.91;;;13.72;30.20
20612;BME280;10465;42.686;23.364;2023-03-13T10:21:46;95434.81;;;13.76;30.40
20612;BME280;10465;42.686;23.364;2023-03-13T10:26:55;95425.47;;;13.87;32.16
20612;BME280;10465;42.686;23.364;2023-03-13T10:29:26;95396.47;;;13.68;31.57
20612;BME280;10465;42.686;23.364;2023-03-13T10:31:57;95415.59;;;13.79;31.72
20612;BME280;10465;42.686;23.364;2023-03-13T10:34:24;95415.75;;;13.91;31.09
20612;BME280;10465;42.686;23.364;2023-03-13T10:36:55;95413.25;;;14.03;30.25
20612;BME280;10465;42.686;23.364;2023-03-13T10:39:23;95407.44;;;13.93;31.20
20612;BME280;10465;42.686;23.364;2023-03-13T10:41:49;95352.50;;;13.62;31.02
20612;BME280;10465;42.686;23.364;2023-03-13T10:44:17;95407.47;;;14.10;31.24
20612;BME280;10465;42.686;23.364;2023-03-13T10:46:45;95402.31;;;14.22;30.91
20612;BME280;10465;42.686;23.364;2023-03-13T10:49:22;95394.28;;;14.40;30.83
20612;BME280;10465;42.686;23.364;2023-03-13T10:51:53;95377.97;;;14.41;30.46
20612;BME280;10465;42.686;23.364;2023-03-13T10:54:31;95381.47;;;14.50;29.68
20612;BME280;10465;42.686;23.364;2023-03-13T10:59:45;95389.59;;;14.28;30.31
20612;BME280;10465;42.686;23.364;2023-03-13T11:02:34;95384.75;;;14.13;30.31
20612;BME280;10465;42.686;23.364;2023-03-13T11:05:27;95380.06;;;14.18;30.56
20612;BME280;10465;42.686;23.364;2023-03-13T11:07:51;95359.34;;;14.32;30.65
20612;BME280;10465;42.686;23.364;2023-03-13T11:10:20;95356.50;;;14.64;31.02
20612;BME280;10465;42.686;23.364;2023-03-13T11:12:50;95359.00;;;14.69;31.36
20612;BME280;10465;42.686;23.364;2023-03-13T11:15:31;95357.44;;;15.06;30.56
20612;BME280;10465;42.686;23.364;2023-03-13T11:18:14;95357.66;;;15.22;30.61
20612;BME280;10465;42.686;23.364;2023-03-13T11:20:45;95351.56;;;15.21;30.09
20612;BME280;10465;42.686;23.364;2023-03-13T11:26:26;95343.94;;;15.11;29.65
20612;BME280;10465;42.686;23.364;2023-03-13T11:31:47;95330.66;;;15.53;29.71
20612;BME280;10465;42.686;23.364;2023-03-13T11:42:19;95320.91;;;15.99;28.75
20612;BME280;10465;42.686;23.364;2023-03-13T11:51:05;95292.19;;;15.54;28.57
20612;BME280;10465;42.686;23.364;2023-03-13T11:55:40;95282.69;;;15.44;28.87
20612;BME280;10465;42.686;23.364;2023-03-13T12:01:12;95268.25;;;15.45;28.44
20612;BME280;10465;42.686;23.364;2023-03-13T12:04:03;95274.44;;;15.58;29.28
20612;BME280;10465;42.686;23.364;2023-03-13T12:06:52;95265.72;;;15.49;29.44
20612;BME280;10465;42.686;23.364;2023-03-13T12:09:25;95263.44;;;15.80;29.16
20612;BME280;10465;42.686;23.364;2023-03-13T12:12:04;95267.34;;;15.83;28.95
20612;BME280;10465;42.686;23.364;2023-03-13T12:14:43;95242.69;;;15.65;29.14
20612;BME280;10465;42.686;23.364;2023-03-13T12:17:30;95256.69;;;15.95;28.41
20612;BME280;10465;42.686;23.364;2023-03-13T12:20:05;95250.72;;;15.98;28.54
20612;BME280;10465;42.686;23.364;2023-03-13T12:22:44;95205.91;;;15.50;29.11
20612;BME280;10465;42.686;23.364;2023-03-13T12:25:18;95255.53;;;15.72;29.32
20612;BME280;10465;42.686;23.364;2023-03-13T12:27:49;95234.88;;;15.81;29.00
20612;BME280;10465;42.686;23.364;2023-03-13T12:30:32;95213.75;;;15.88;28.48
20612;BME280;10465;42.686;23.364;2023-03-13T12:33:37;95240.84;;;16.11;28.38
20612;BME280;10465;42.686;23.364;2023-03-13T12:36:19;95245.97;;;16.28;28.09
20612;BME280;10465;42.686;23.364;2023-03-13T12:38:52;95190.00;;;16.32;27.63
20612;BME280;10465;42.686;23.364;2023-03-13T12:41:37;95238.16;;;16.81;27.64
20612;BME280;10465;42.686;23.364;2023-03-13T12:44:14;95215.66;;;16.82;27.57
20612;BME280;10465;42.686;23.364;2023-03-13T12:46:47;95237.16;;;16.98;26.73
20612;BME280;10465;42.686;23.364;2023-03-13T13:00:37;95247.53;;;16.75;27.20
20612;BME280;10465;42.686;23.364;2023-03-13T13:06:03;95235.03;;;16.79;28.20
20612;BME280;10465;42.686;23.364;2023-03-13T13:08:41;95227.53;;;16.72;27.61
20612;BME280;10465;42.686;23.364;2023-03-13T13:13:58;95245.94;;;17.11;26.90
20612;BME280;10465;42.686;23.364;2023-03-13T13:16:24;95224.72;;;17.30;26.44
20612;BME280;10465;42.686;23.364;2023-03-13T13:18:50;95239.44;;;17.64;25.84
20612;BME280;10465;42.686;23.364;2023-03-13T13:23:46;95245.31;;;17.70;25.81
20612;BME280;10465;42.686;23.364;2023-03-13T13:31:53;95212.88;;;17.43;26.89
20612;BME280;10465;42.686;23.364;2023-03-13T13:36:52;95192.00;;;16.96;26.81
20612;BME280;10465;42.686;23.364;2023-03-13T13:41:59;95206.41;;;16.92;27.00
20612;BME280;10465;42.686;23.364;2023-03-13T13:44:26;95219.53;;;16.97;26.96
20612;BME280;10465;42.686;23.364;2023-03-13T13:46:54;95215.50;;;17.15;27.09
20612;BME280;10465;42.686;23.364;2023-03-13T13:49:23;95201.66;;;17.13;26.33
20612;BME280;10465;42.686;23.364;2023-03-13T13:57:14;95179.78;;;16.83;26.49
20612;BME280;10465;42.686;23.364;2023-03-13T14:00:22;95210.50;;;16.89;26.76
20612;BME280;10465;42.686;23.364;2023-03-13T14:02:54;95199.59;;;16.94;26.38
20612;BME280;10465;42.686;23.364;2023-03-13T14:05:24;95198.81;;;17.06;26.91
20612;BME280;10465;42.686;23.364;2023-03-13T14:07:57;95202.81;;;17.00;26.91
20612;BME280;10465;42.686;23.364;2023-03-13T14:10:29;95211.38;;;17.18;26.93
20612;BME280;10465;42.686;23.364;2023-03-13T14:12:58;95199.69;;;17.10;26.87
20612;BME280;10465;42.686;23.364;2023-03-13T14:15:26;95206.28;;;17.00;26.96
20612;BME280;10465;42.686;23.364;2023-03-13T14:20:33;95197.41;;;17.24;26.61
20612;BME280;10465;42.686;23.364;2023-03-13T14:23:01;95203.66;;;17.28;26.43
20612;BME280;10465;42.686;23.364;2023-03-13T14:25:48;95193.81;;;17.33;26.29
20612;BME280;10465;42.686;23.364;2023-03-13T14:28:22;95196.50;;;17.33;26.28
20612;BME280;10465;42.686;23.364;2023-03-13T14:30:51;95196.06;;;17.30;25.76